Time;durP1;ratioP1;P1;durP2;ratioP2;P2;SDS_P1;SDS_P2;PMS_P1;PMS_P2;Temp;Humidity;BMP_temperature;BMP_pressure;BME280_temperature;BME280_humidity;BME280_pressure;Samples;Min_cycle;Max_cycle;Signal;HPM_P1;HPM_P2
2023/03/30 00:01:19;;;;;;;;;;;;;;;;;;4999018;28;20261;-26
2023/03/30 00:03:45;;;;;;;;;;;;;;;;;;4998656;28;19972;-28
2023/03/30 00:06:13;;;;;;;;;;;;;;;;;;4998508;28;19941;-27
2023/03/30 00:08:39;;;;;;;;;;;;;;;;;;4998506;28;19989;-30
2023/03/30 00:11:05;;;;;;;;;;;;;;;;;;4998520;28;19910;-31
2023/03/30 00:13:31;;;;;;;;;;;;;;;;;;4981313;28;19917;-27
2023/03/30 00:15:57;;;;;;;;;;;;;;;;;;4998744;28;20322;-25
2023/03/30 00:18:23;;;;;;;;;;;;;;;;;;4998361;28;19913;-29
2023/03/30 00:20:50;;;;;;;;;;;;;;;;;;4998676;28;20257;-26
2023/03/30 00:23:16;;;;;;;;;;;;;;;;;;4998289;28;19913;-30
2023/03/30 00:25:42;;;;;;;;;;;;;;;;;;4998373;28;19910;-29
2023/03/30 00:28:08;;;;;;;;;;;;;;;;;;4998474;28;19917;-27
2023/03/30 00:30:35;;;;;;;;;;;;;;;;;;4998225;28;19910;-24
2023/03/30 00:33:01;;;;;;;;;;;;;;;;;;4997985;28;19910;-29
2023/03/30 00:35:29;;;;;;;;;;;;;;;;;;4998065;28;19941;-26
2023/03/30 00:37:55;;;;;;;;;;;;;;;;;;4997970;28;19914;-26
2023/03/30 00:40:21;;;;;;;;;;;;;;;;;;4998027;28;19949;-30
2023/03/30 00:42:47;;;;;;;;;;;;;;;;;;4998144;28;20372;-26
2023/03/30 00:45:13;;;;;;;;;;;;;;;;;;4997952;28;19968;-27
2023/03/30 00:47:38;;;;;;;;;;;;;;;;;;4998131;28;20003;-26
2023/03/30 00:50:04;;;;;;;;;;;;;;;;;;4997805;28;19933;-28
2023/03/30 00:52:32;;;;;;;;;;;;;;;;;;4997984;28;19910;-30
2023/03/30 00:54:57;;;;;;;;;;;;;;;;;;4997161;28;19913;-31
2023/03/30 00:57:23;;;;;;;;;;;;;;;;;;4997933;28;19921;-30
2023/03/30 00:59:51;;;;;;;;;;;;;;;;;;4997647;28;19910;-29
2023/03/30 01:02:17;;;;;;;;;;;;;;;;;;4997839;28;20024;-27
2023/03/30 01:04:44;;;;;;;;;;;;;;;;;;4997608;28;19921;-27
2023/03/30 01:07:11;;;;;;;;;;;;;;;;;;4997280;28;20349;-28
2023/03/30 01:09:37;;;;;;;;;;;;;;;;;;4997695;28;19914;-31
2023/03/30 01:12:04;;;;;;;;;;;;;;;;;;4997625;28;19916;-25
2023/03/30 01:14:30;;;;;;;;;;;;;;;;;;4997439;28;19921;-25
2023/03/30 01:16:56;;;;;;;;;;;;;;;;;;4997307;28;19958;-28
2023/03/30 01:19:22;;;;;;;;;;;;;;;;;;4997309;28;19909;-27
2023/03/30 01:21:48;;;;;;;;;;;;;;;;;;4997201;28;19920;-30
2023/03/30 01:24:14;;;;;;;;;;;;;;;;;;4997276;28;19910;-30
2023/03/30 01:26:41;;;;;;;;;;;;;;;;;;4979944;28;19928;-24
2023/03/30 01:29:07;;;;;;;;;;;;;;;;;;4997082;28;19909;-27
2023/03/30 01:31:33;;;;;;;;;;;;;;;;;;4997378;28;20385;-29
2023/03/30 01:33:59;;;;;;;;;;;;;;;;;;4996982;28;19909;-25
2023/03/30 01:36:27;;;;;;;;;;;;;;;;;;4996962;28;20242;-27
2023/03/30 01:38:53;;;;;;;;;;;;;;;;;;4996887;28;19925;-26
2023/03/30 01:41:21;;;;;;;;;;;;;;;;;;4996924;28;19918;-24
2023/03/30 01:43:47;;;;;;;;;;;;;;;;;;4996733;28;19918;-24
2023/03/30 01:46:13;;;;;;;;;;;;;;;;;;4996733;28;19916;-28
2023/03/30 01:48:44;;;;;;;;;;;;;;;;;;4996755;28;20009;-32
2023/03/30 01:51:10;;;;;;;;;;;;;;;;;;4997001;28;20292;-26
2023/03/30 01:53:36;;;;;;;;;;;;;;;;;;4996623;28;20004;-28
2023/03/30 01:56:02;;;;;;;;;;;;;;;;;;4996847;28;19910;-26
2023/03/30 01:58:28;;;;;;;;;;;;;;;;;;4996518;28;19917;-25
2023/03/30 02:00:54;;;;;;;;;;;;;;;;;;4996749;28;19921;-28
2023/03/30 02:03:20;;;;;;;;;;;;;;;;;;4996435;28;20005;-27
2023/03/30 02:05:46;;;;;;;;;;;;;;;;;;4996086;28;19936;-25
2023/03/30 02:08:12;;;;;;;;;;;;;;;;;;4995966;28;20362;-30
2023/03/30 02:10:38;;;;;;;;;;;;;;;;;;4996630;28;20333;-27
2023/03/30 02:13:04;;;;;;;;;;;;;;;;;;4996483;28;20256;-26
2023/03/30 02:15:30;;;;;;;;;;;;;;;;;;4996259;28;19910;-24
2023/03/30 02:17:56;;;;;;;;;;;;;;;;;;4996155;28;20075;-31
2023/03/30 02:20:22;;;;;;;;;;;;;;;;;;4996244;28;20257;-28
2023/03/30 02:22:48;;;;;;;;;;;;;;;;;;4996267;28;19917;-25
2023/03/30 02:25:15;;;;;;;;;;;;;;;;;;4996339;28;19980;-25
2023/03/30 02:27:41;;;;;;;;;;;;;;;;;;4996010;28;19920;-28
2023/03/30 02:30:07;;;;;;;;;;;;;;;;;;4996285;28;20009;-26
2023/03/30 02:32:33;;;;;;;;;;;;;;;;;;4995876;28;19928;-23
2023/03/30 02:34:59;;;;;;;;;;;;;;;;;;4996172;28;19917;-29
2023/03/30 02:37:25;;;;;;;;;;;;;;;;;;4995754;28;19968;-31
2023/03/30 02:39:51;;;;;;;;;;;;;;;;;;4995856;28;19910;-32
2023/03/30 02:42:17;;;;;;;;;;;;;;;;;;4995753;28;20004;-30
2023/03/30 02:44:43;;;;;;;;;;;;;;;;;;4996008;28;19937;-26
2023/03/30 02:47:09;;;;;;;;;;;;;;;;;;4978538;28;19920;-29
2023/03/30 02:49:35;;;;;;;;;;;;;;;;;;4995986;28;20330;-25
2023/03/30 02:52:01;;;;;;;;;;;;;;;;;;4995623;28;20301;-29
2023/03/30 02:54:27;;;;;;;;;;;;;;;;;;4995972;28;20071;-32
2023/03/30 02:56:53;;;;;;;;;;;;;;;;;;4995572;28;19953;-27
2023/03/30 02:59:19;;;;;;;;;;;;;;;;;;4995882;28;19916;-28
2023/03/30 03:01:46;;;;;;;;;;;;;;;;;;4995562;28;19910;-29
2023/03/30 03:04:14;;;;;;;;;;;;;;;;;;4995405;28;19921;-24
2023/03/30 03:06:41;;;;;;;;;;;;;;;;;;4995507;28;19917;-24
2023/03/30 03:09:07;;;;;;;;;;;;;;;;;;4995412;28;19910;-29
2023/03/30 03:11:33;;;;;;;;;;;;;;;;;;4995639;28;19996;-30
2023/03/30 03:13:59;;;;;;;;;;;;;;;;;;4995251;28;19917;-29
2023/03/30 03:16:25;;;;;;;;;;;;;;;;;;4995311;28;19918;-23
2023/03/30 03:18:51;;;;;;;;;;;;;;;;;;4995269;28;19962;-27
2023/03/30 03:21:17;;;;;;;;;;;;;;;;;;4995582;28;19913;-27
2023/03/30 03:23:43;;;;;;;;;;;;;;;;;;4995201;28;19910;-30
2023/03/30 03:26:10;;;;;;;;;;;;;;;;;;4995475;28;20352;-34
2023/03/30 03:28:36;;;;;;;;;;;;;;;;;;4995122;28;19913;-26
2023/03/30 03:31:02;;;;;;;;;;;;;;;;;;4995415;28;19960;-27
2023/03/30 03:33:30;;;;;;;;;;;;;;;;;;4995058;28;19921;-30
2023/03/30 03:35:58;;;;;;;;;;;;;;;;;;4995381;28;20201;-28
2023/03/30 03:38:24;;;;;;;;;;;;;;;;;;4995250;28;19914;-25
2023/03/30 03:40:50;;;;;;;;;;;;;;;;;;4995344;28;19910;-28
2023/03/30 03:43:16;;;;;;;;;;;;;;;;;;4994987;28;19910;-30
2023/03/30 03:45:42;;;;;;;;;;;;;;;;;;4995299;28;20273;-26
2023/03/30 03:48:08;;;;;;;;;;;;;;;;;;4995240;28;19941;-30
2023/03/30 03:50:35;;;;;;;;;;;;;;;;;;4994954;28;19910;-24
2023/03/30 03:53:01;;;;;;;;;;;;;;;;;;4994811;28;19910;-31
2023/03/30 03:55:28;;;;;;;;;;;;;;;;;;4994795;28;19968;-29
2023/03/30 03:57:54;;;;;;;;;;;;;;;;;;4994913;28;19914;-25
2023/03/30 04:00:21;;;;;;;;;;;;;;;;;;4994737;28;19910;-25
2023/03/30 04:05:21;;;;;;;;;;;;;;;;;;4993678;28;19930;-30
2023/03/30 04:07:52;;;;;;;;;;;;;;;;;;4993925;28;20120;-22
2023/03/30 04:10:18;;;;;;;;;;;;;;;;;;4977208;28;19973;-23
2023/03/30 04:12:44;;;;;;;;;;;;;;;;;;4976971;28;19913;-22
2023/03/30 04:15:10;;;;;;;;;;;;;;;;;;4994586;28;19913;-21
2023/03/30 04:17:36;;;;;;;;;;;;;;;;;;4994359;28;20259;-23
2023/03/30 04:20:03;;;;;;;;;;;;;;;;;;4994324;28;19928;-22
2023/03/30 04:22:32;;;;;;;;;;;;;;;;;;4994164;28;19909;-22
2023/03/30 04:24:58;;;;;;;;;;;;;;;;;;4993999;28;19914;-23
2023/03/30 04:27:24;;;;;;;;;;;;;;;;;;4994035;28;19975;-22
2023/03/30 04:29:50;;;;;;;;;;;;;;;;;;4995439;28;20012;-21
2023/03/30 04:32:19;;;;;;;;;;;;;;;;;;4998024;28;20019;-21
2023/03/30 04:34:48;;;;;;;;;;;;;;;;;;4997770;28;19910;-23
2023/03/30 04:37:17;;;;;;;;;;;;;;;;;;4997982;28;19913;-23
2023/03/30 04:39:43;;;;;;;;;;;;;;;;;;4997970;28;19933;-22
2023/03/30 04:42:13;;;;;;;;;;;;;;;;;;4997808;28;20218;-22
2023/03/30 04:44:38;;;;;;;;;;;;;;;;;;4997790;28;20269;-23
2023/03/30 04:47:05;;;;;;;;;;;;;;;;;;4997499;28;19913;-22
2023/03/30 04:49:31;;;;;;;;;;;;;;;;;;4997362;28;19914;-23
2023/03/30 04:51:57;;;;;;;;;;;;;;;;;;4997478;28;19920;-22
2023/03/30 04:54:23;;;;;;;;;;;;;;;;;;4997460;28;19910;-21
2023/03/30 04:56:48;;;;;;;;;;;;;;;;;;4997635;28;20379;-22
2023/03/30 04:59:14;;;;;;;;;;;;;;;;;;4997297;28;19917;-23
2023/03/30 05:01:40;;;;;;;;;;;;;;;;;;4997366;28;20299;-24
2023/03/30 05:04:06;;;;;;;;;;;;;;;;;;4996765;28;19929;-23
2023/03/30 05:06:32;;;;;;;;;;;;;;;;;;4997167;28;19910;-20
2023/03/30 05:08:58;;;;;;;;;;;;;;;;;;4997359;28;20007;-21
2023/03/30 05:11:25;;;;;;;;;;;;;;;;;;4996779;28;19909;-21
2023/03/30 05:13:51;;;;;;;;;;;;;;;;;;4996865;28;19973;-21
2023/03/30 05:16:17;;;;;;;;;;;;;;;;;;4996634;28;19918;-23
2023/03/30 05:18:43;;;;;;;;;;;;;;;;;;4996693;28;19934;-23
2023/03/30 05:21:09;;;;;;;;;;;;;;;;;;4996872;28;19917;-22
2023/03/30 05:23:35;;;;;;;;;;;;;;;;;;4979788;28;19920;-22
2023/03/30 05:26:03;;;;;;;;;;;;;;;;;;4996801;28;19914;-21
2023/03/30 05:28:29;;;;;;;;;;;;;;;;;;4996896;28;20209;-23
2023/03/30 05:30:55;;;;;;;;;;;;;;;;;;4996745;28;19910;-22
2023/03/30 05:33:21;;;;;;;;;;;;;;;;;;4996890;28;20340;-21
2023/03/30 05:35:47;;;;;;;;;;;;;;;;;;4997025;28;20203;-21
2023/03/30 05:38:13;;;;;;;;;;;;;;;;;;4996608;28;19913;-23
2023/03/30 05:40:39;;;;;;;;;;;;;;;;;;4996544;28;19941;-23
2023/03/30 05:43:05;;;;;;;;;;;;;;;;;;4996378;28;20248;-22
2023/03/30 05:45:31;;;;;;;;;;;;;;;;;;4996569;28;19910;-21
2023/03/30 05:47:57;;;;;;;;;;;;;;;;;;4996386;28;20361;-22
2023/03/30 05:50:23;;;;;;;;;;;;;;;;;;4996288;28;20321;-23
2023/03/30 05:52:49;;;;;;;;;;;;;;;;;;4995943;28;19972;-23
2023/03/30 05:55:15;;;;;;;;;;;;;;;;;;4996400;28;19910;-23
2023/03/30 05:57:41;;;;;;;;;;;;;;;;;;4996282;28;19925;-23
2023/03/30 06:00:09;;;;;;;;;;;;;;;;;;4996095;28;20016;-22
2023/03/30 06:02:35;;;;;;;;;;;;;;;;;;4978360;28;20300;-23
2023/03/30 06:05:01;;;;;;;;;;;;;;;;;;4996049;28;20036;-21
2023/03/30 06:07:27;;;;;;;;;;;;;;;;;;4996476;28;20252;-23
2023/03/30 06:09:53;;;;;;;;;;;;;;;;;;4996039;28;19917;-22
2023/03/30 06:12:19;;;;;;;;;;;;;;;;;;4995917;28;19909;-22
2023/03/30 06:14:45;;;;;;;;;;;;;;;;;;4995715;28;19910;-22
2023/03/30 06:17:12;;;;;;;;;;;;;;;;;;4995394;28;19945;-22
2023/03/30 06:19:38;;;;;;;;;;;;;;;;;;4995229;28;20046;-24
2023/03/30 06:22:05;;;;;;;;;;;;;;;;;;4978042;28;20342;-22
2023/03/30 06:24:31;;;;;;;;;;;;;;;;;;4995222;28;20004;-22
2023/03/30 06:26:57;;;;;;;;;;;;;;;;;;4995278;28;19996;-24
2023/03/30 06:29:23;;;;;;;;;;;;;;;;;;4995086;28;20257;-25
2023/03/30 06:31:50;;;;;;;;;;;;;;;;;;4978592;28;19917;-25
2023/03/30 06:34:16;;;;;;;;;;;;;;;;;;4995202;28;19932;-24
2023/03/30 06:36:42;;;;;;;;;;;;;;;;;;4994948;28;19980;-22
2023/03/30 06:39:09;;;;;;;;;;;;;;;;;;4994959;28;19909;-23
2023/03/30 06:41:35;;;;;;;;;;;;;;;;;;4978167;28;20209;-23
2023/03/30 06:44:01;;;;;;;;;;;;;;;;;;4995197;28;20246;-22
2023/03/30 06:46:27;;;;;;;;;;;;;;;;;;4978027;28;19910;-22
2023/03/30 06:48:53;;;;;;;;;;;;;;;;;;4995223;28;20415;-24
2023/03/30 06:51:20;;;;;;;;;;;;;;;;;;4995235;28;19910;-23
2023/03/30 06:53:45;;;;;;;;;;;;;;;;;;4994824;28;19910;-22
2023/03/30 06:56:11;;;;;;;;;;;;;;;;;;4994999;28;20303;-21
2023/03/30 06:58:37;;;;;;;;;;;;;;;;;;4994769;28;20341;-23
2023/03/30 07:01:04;;;;;;;;;;;;;;;;;;4994485;28;19960;-22
2023/03/30 07:03:30;;;;;;;;;;;;;;;;;;4994459;28;20347;-23
2023/03/30 07:05:57;;;;;;;;;;;;;;;;;;4994520;28;20068;-22
2023/03/30 07:08:23;;;;;;;;;;;;;;;;;;4994593;28;19916;-21
2023/03/30 07:10:50;;;;;;;;;;;;;;;;;;4994693;28;19910;-23
2023/03/30 07:13:16;;;;;;;;;;;;;;;;;;4994899;28;19941;-24
2023/03/30 07:15:42;;;;;;;;;;;;;;;;;;4994958;28;19910;-21
2023/03/30 07:18:08;;;;;;;;;;;;;;;;;;4995222;28;20020;-22
2023/03/30 07:20:34;;;;;;;;;;;;;;;;;;4995051;28;19976;-22
2023/03/30 07:23:00;;;;;;;;;;;;;;;;;;4994882;28;19918;-21
2023/03/30 07:25:26;;;;;;;;;;;;;;;;;;4977733;28;20261;-23
2023/03/30 07:27:52;;;;;;;;;;;;;;;;;;4994923;28;20017;-22
2023/03/30 07:30:18;;;;;;;;;;;;;;;;;;4977534;28;19982;-22
2023/03/30 07:32:44;;;;;;;;;;;;;;;;;;4994488;28;19910;-22
2023/03/30 07:35:10;;;;;;;;;;;;;;;;;;4994720;28;20253;-21
2023/03/30 07:37:38;;;;;;;;;;;;;;;;;;4994364;28;19914;-23
2023/03/30 07:40:06;;;;;;;;;;;;;;;;;;4994758;28;19972;-23
2023/03/30 07:42:32;;;;;;;;;;;;;;;;;;4994426;28;19917;-23
2023/03/30 07:44:58;;;;;;;;;;;;;;;;;;4994362;28;20230;-22
2023/03/30 07:47:24;;;;;;;;;;;;;;;;;;4994470;28;19913;-21
2023/03/30 07:49:50;;;;;;;;;;;;;;;;;;4994214;28;20319;-22
2023/03/30 07:52:16;;;;;;;;;;;;;;;;;;4994410;28;19968;-23
2023/03/30 07:54:43;;;;;;;;;;;;;;;;;;4994222;28;19909;-23
2023/03/30 07:57:09;;;;;;;;;;;;;;;;;;4994138;28;19960;-23
2023/03/30 07:59:35;;;;;;;;;;;;;;;;;;4994409;28;19932;-24
2023/03/30 08:02:01;;;;;;;;;;;;;;;;;;4994423;28;19925;-21
2023/03/30 08:04:27;;;;;;;;;;;;;;;;;;4994845;28;19953;-21
2023/03/30 08:06:53;;;;;;;;;;;;;;;;;;4998257;28;19960;-22
2023/03/30 08:09:19;;;;;;;;;;;;;;;;;;4998073;28;19917;-24
2023/03/30 08:11:45;;;;;;;;;;;;;;;;;;4998212;28;20353;-23
2023/03/30 08:14:11;;;;;;;;;;;;;;;;;;4998019;28;19917;-23
2023/03/30 08:16:37;;;;;;;;;;;;;;;;;;4997882;28;19985;-22
2023/03/30 08:19:03;;;;;;;;;;;;;;;;;;4997816;28;19917;-21
2023/03/30 08:21:29;;;;;;;;;;;;;;;;;;4998222;28;19910;-22
2023/03/30 08:23:57;;;;;;;;;;;;;;;;;;4998064;28;20305;-24
2023/03/30 08:26:23;;;;;;;;;;;;;;;;;;4998098;28;19914;-21
2023/03/30 08:28:50;;;;;;;;;;;;;;;;;;4980674;28;19910;-23
2023/03/30 08:31:17;;;;;;;;;;;;;;;;;;4998622;28;19920;-25
2023/03/30 08:33:43;;;;;;;;;;;;;;;;;;4997764;28;19910;-25
2023/03/30 08:36:09;;;;;;;;;;;;;;;;;;4997624;28;20020;-22
2023/03/30 08:38:35;;;;;;;;;;;;;;;;;;4980195;28;20410;-23
2023/03/30 08:41:01;;;;;;;;;;;;;;;;;;4997427;28;19966;-22
2023/03/30 08:43:27;;;;;;;;;;;;;;;;;;4980011;28;19932;-22
2023/03/30 08:45:53;;;;;;;;;;;;;;;;;;4997177;28;19941;-22
2023/03/30 08:48:19;;;;;;;;;;;;;;;;;;4996664;28;19910;-23
2023/03/30 08:50:45;;;;;;;;;;;;;;;;;;4996921;28;19980;-23
2023/03/30 08:53:11;;;;;;;;;;;;;;;;;;4997146;28;20344;-22
2023/03/30 08:55:37;;;;;;;;;;;;;;;;;;4979414;28;19967;-22
2023/03/30 08:58:03;;;;;;;;;;;;;;;;;;4996511;28;20209;-23
2023/03/30 09:00:29;;;;;;;;;;;;;;;;;;4979355;28;19910;-23
2023/03/30 09:02:55;;;;;;;;;;;;;;;;;;4979232;28;19920;-22
2023/03/30 09:05:21;;;;;;;;;;;;;;;;;;4957677;28;20328;-23
2023/03/30 09:07:47;;;;;;;;;;;;;;;;;;4956716;28;19911;-22
2023/03/30 09:10:13;;;;;;;;;;;;;;;;;;4957957;28;19918;-22
2023/03/30 09:12:39;;;;;;;;;;;;;;;;;;4957554;28;19910;-25
2023/03/30 09:15:05;;;;;;;;;;;;;;;;;;4957241;28;20041;-23
2023/03/30 09:17:31;;;;;;;;;;;;;;;;;;4957608;28;20304;-24
2023/03/30 09:19:57;;;;;;;;;;;;;;;;;;4956637;28;19910;-21
2023/03/30 09:22:23;;;;;;;;;;;;;;;;;;4958062;28;19921;-22
2023/03/30 09:24:50;;;;;;;;;;;;;;;;;;4956843;28;20068;-25
2023/03/30 09:27:17;;;;;;;;;;;;;;;;;;4957995;28;20334;-24
2023/03/30 09:29:43;;;;;;;;;;;;;;;;;;4958206;28;19917;-23
2023/03/30 09:32:09;;;;;;;;;;;;;;;;;;4957805;28;19911;-23
2023/03/30 09:34:35;;;;;;;;;;;;;;;;;;4958058;28;20002;-23
2023/03/30 09:37:02;;;;;;;;;;;;;;;;;;4957789;28;19918;-22
2023/03/30 09:39:28;;;;;;;;;;;;;;;;;;4958027;28;19965;-21
2023/03/30 09:41:54;;;;;;;;;;;;;;;;;;4957714;28;20281;-21
2023/03/30 09:44:20;;;;;;;;;;;;;;;;;;4956661;28;20002;-25
2023/03/30 09:46:46;;;;;;;;;;;;;;;;;;4957744;28;20006;-23
2023/03/30 09:49:12;;;;;;;;;;;;;;;;;;4957634;28;20265;-22
2023/03/30 09:51:39;;;;;;;;;;;;;;;;;;4956520;28;19911;-23
2023/03/30 09:54:05;;;;;;;;;;;;;;;;;;4957452;28;19957;-22
2023/03/30 09:56:31;;;;;;;;;;;;;;;;;;4957489;28;20349;-21
2023/03/30 09:58:57;;;;;;;;;;;;;;;;;;4957467;28;20054;-24
2023/03/30 10:01:23;;;;;;;;;;;;;;;;;;4957175;28;19911;-22
2023/03/30 10:03:49;;;;;;;;;;;;;;;;;;4971347;28;19928;-22
2023/03/30 10:06:15;;;;;;;;;;;;;;;;;;4996198;28;19914;-22
2023/03/30 10:08:41;;;;;;;;;;;;;;;;;;4995882;28;19924;-21
2023/03/30 10:11:07;;;;;;;;;;;;;;;;;;4996240;28;20400;-24
2023/03/30 10:13:33;;;;;;;;;;;;;;;;;;4995857;28;20001;-24
2023/03/30 10:16:00;;;;;;;;;;;;;;;;;;4995873;28;19956;-22
2023/03/30 10:18:26;;;;;;;;;;;;;;;;;;4995743;28;19976;-23
2023/03/30 10:20:52;;;;;;;;;;;;;;;;;;4995730;28;20344;-22
2023/03/30 10:23:18;;;;;;;;;;;;;;;;;;4995171;28;20302;-23
2023/03/30 10:25:45;;;;;;;;;;;;;;;;;;4977980;28;19917;-21
2023/03/30 10:28:12;;;;;;;;;;;;;;;;;;4994430;28;19929;-22
2023/03/30 10:30:38;;;;;;;;;;;;;;;;;;4994975;28;19916;-22
2023/03/30 10:33:04;;;;;;;;;;;;;;;;;;4995066;28;20294;-23
2023/03/30 10:35:30;;;;;;;;;;;;;;;;;;4977565;28;19921;-21
2023/03/30 10:37:57;;;;;;;;;;;;;;;;;;4994539;28;20019;-23
2023/03/30 10:40:23;;;;;;;;;;;;;;;;;;4994949;28;19910;-22
2023/03/30 10:42:49;;;;;;;;;;;;;;;;;;4995000;28;19920;-22
2023/03/30 10:45:15;;;;;;;;;;;;;;;;;;4995413;28;20220;-21
2023/03/30 10:47:41;;;;;;;;;;;;;;;;;;4995694;28;19992;-22
2023/03/30 10:50:07;;;;;;;;;;;;;;;;;;4977817;28;19910;-22
2023/03/30 10:52:33;;;;;;;;;;;;;;;;;;4994681;28;20351;-23
2023/03/30 10:54:59;;;;;;;;;;;;;;;;;;4994543;28;19909;-22
2023/03/30 10:57:25;;;;;;;;;;;;;;;;;;4994376;28;19976;-23
2023/03/30 10:59:51;;;;;;;;;;;;;;;;;;4994352;28;19910;-22
2023/03/30 11:02:17;;;;;;;;;;;;;;;;;;4993835;28;19917;-23
2023/03/30 11:04:43;;;;;;;;;;;;;;;;;;4976218;28;20268;-26
2023/03/30 11:07:09;;;;;;;;;;;;;;;;;;4993847;28;19932;-23
2023/03/30 11:09:35;;;;;;;;;;;;;;;;;;4976586;28;19910;-23
2023/03/30 11:12:01;;;;;;;;;;;;;;;;;;4976527;28;19914;-22
2023/03/30 11:14:27;;;;;;;;;;;;;;;;;;4993588;28;19921;-22
2023/03/30 11:16:53;;;;;;;;;;;;;;;;;;4993656;28;19924;-24
2023/03/30 11:19:19;;;;;;;;;;;;;;;;;;4993722;28;19909;-23
2023/03/30 11:21:45;;;;;;;;;;;;;;;;;;4976692;28;20012;-22
2023/03/30 11:24:11;;;;;;;;;;;;;;;;;;4994670;28;19960;-22
2023/03/30 11:26:37;;;;;;;;;;;;;;;;;;4994779;28;20355;-20
2023/03/30 11:29:03;;;;;;;;;;;;;;;;;;4994770;28;20368;-23
2023/03/30 11:31:29;;;;;;;;;;;;;;;;;;4994584;28;19910;-22
2023/03/30 11:33:55;;;;;;;;;;;;;;;;;;4994722;28;19932;-22
2023/03/30 11:36:21;;;;;;;;;;;;;;;;;;4994976;28;19976;-21
2023/03/30 11:38:47;;;;;;;;;;;;;;;;;;4995993;28;20256;-21
2023/03/30 11:41:13;;;;;;;;;;;;;;;;;;4981379;28;19921;-24
2023/03/30 11:43:39;;;;;;;;;;;;;;;;;;4998419;28;20353;-25
2023/03/30 11:46:05;;;;;;;;;;;;;;;;;;4998615;28;20313;-23
2023/03/30 11:48:31;;;;;;;;;;;;;;;;;;4998645;28;20272;-22
2023/03/30 11:50:57;;;;;;;;;;;;;;;;;;4998843;28;19917;-21
2023/03/30 11:53:23;;;;;;;;;;;;;;;;;;4998441;28;19914;-23
2023/03/30 11:55:49;;;;;;;;;;;;;;;;;;4998523;28;19917;-23
2023/03/30 11:58:15;;;;;;;;;;;;;;;;;;4998620;28;19913;-23
2023/03/30 12:00:41;;;;;;;;;;;;;;;;;;4998376;28;19914;-21
2023/03/30 12:03:07;;;;;;;;;;;;;;;;;;4998064;28;19910;-22
2023/03/30 12:05:33;;;;;;;;;;;;;;;;;;4998665;28;19913;-22
2023/03/30 12:07:59;;;;;;;;;;;;;;;;;;4998357;28;19910;-22
2023/03/30 12:10:25;;;;;;;;;;;;;;;;;;4998327;28;19950;-23
2023/03/30 12:12:52;;;;;;;;;;;;;;;;;;4997951;28;19941;-22
2023/03/30 12:15:18;;;;;;;;;;;;;;;;;;4998226;28;20001;-21
2023/03/30 12:17:44;;;;;;;;;;;;;;;;;;4998212;28;20312;-22
2023/03/30 12:20:11;;;;;;;;;;;;;;;;;;4998163;28;19952;-22
2023/03/30 12:22:37;;;;;;;;;;;;;;;;;;4998086;28;20284;-22
2023/03/30 12:25:03;;;;;;;;;;;;;;;;;;4997958;28;20004;-22
2023/03/30 12:27:31;;;;;;;;;;;;;;;;;;4980319;28;19969;-23
2023/03/30 12:29:57;;;;;;;;;;;;;;;;;;4997415;28;19997;-23
2023/03/30 12:32:23;;;;;;;;;;;;;;;;;;4997369;28;19964;-22
2023/03/30 12:34:49;;;;;;;;;;;;;;;;;;4980394;28;19909;-23
2023/03/30 12:37:16;;;;;;;;;;;;;;;;;;4997636;28;20067;-21
2023/03/30 12:39:47;;;;;;;;;;;;;;;;;;4997579;28;19910;-22
2023/03/30 12:42:13;;;;;;;;;;;;;;;;;;4997400;28;19910;-23
2023/03/30 12:44:39;;;;;;;;;;;;;;;;;;4997261;28;20000;-22
2023/03/30 12:47:08;;;;;;;;;;;;;;;;;;4997284;28;19915;-24
2023/03/30 12:49:35;;;;;;;;;;;;;;;;;;4997443;28;19910;-25
2023/03/30 12:52:01;;;;;;;;;;;;;;;;;;4996500;28;20386;-23
2023/03/30 12:54:27;;;;;;;;;;;;;;;;;;4997400;28;19917;-23
2023/03/30 12:56:54;;;;;;;;;;;;;;;;;;4997298;28;20028;-22
2023/03/30 12:59:20;;;;;;;;;;;;;;;;;;4996949;28;19922;-23
2023/03/30 13:01:45;;;;;;;;;;;;;;;;;;4997229;28;19920;-23
2023/03/30 13:04:11;;;;;;;;;;;;;;;;;;4997055;28;19983;-23
2023/03/30 13:06:38;;;;;;;;;;;;;;;;;;4980003;28;19909;-22
2023/03/30 13:09:04;;;;;;;;;;;;;;;;;;4997215;28;20265;-22
2023/03/30 13:11:30;;;;;;;;;;;;;;;;;;4997002;28;19910;-22
2023/03/30 13:13:56;;;;;;;;;;;;;;;;;;4996984;28;19921;-22
2023/03/30 13:16:22;;;;;;;;;;;;;;;;;;4997068;28;19910;-20
2023/03/30 13:18:48;;;;;;;;;;;;;;;;;;4997473;28;19914;-22
2023/03/30 13:21:14;;;;;;;;;;;;;;;;;;4997052;28;19910;-23
2023/03/30 13:23:40;;;;;;;;;;;;;;;;;;4979497;28;19910;-24
2023/03/30 13:26:08;;;;;;;;;;;;;;;;;;4997172;28;20347;-23
2023/03/30 13:28:34;;;;;;;;;;;;;;;;;;4996830;28;19910;-23
2023/03/30 13:31:00;;;;;;;;;;;;;;;;;;4996822;28;19920;-23
2023/03/30 13:33:26;;;;;;;;;;;;;;;;;;4996700;28;20249;-22
2023/03/30 13:35:52;;;;;;;;;;;;;;;;;;4979439;28;19921;-21
2023/03/30 13:38:18;;;;;;;;;;;;;;;;;;4996523;28;19922;-23
2023/03/30 13:40:44;;;;;;;;;;;;;;;;;;4996929;28;20317;-24
2023/03/30 13:43:10;;;;;;;;;;;;;;;;;;4996390;28;19909;-23
2023/03/30 13:45:36;;;;;;;;;;;;;;;;;;4996797;28;19910;-22
2023/03/30 13:48:02;;;;;;;;;;;;;;;;;;4996783;28;19910;-21
2023/03/30 13:50:30;;;;;;;;;;;;;;;;;;4996454;28;20222;-24
2023/03/30 13:52:56;;;;;;;;;;;;;;;;;;4996667;28;19917;-22
2023/03/30 13:55:21;;;;;;;;;;;;;;;;;;4996778;28;20286;-22
2023/03/30 13:57:47;;;;;;;;;;;;;;;;;;4996516;28;20236;-21
2023/03/30 14:00:13;;;;;;;;;;;;;;;;;;4996279;28;20183;-22
2023/03/30 14:02:40;;;;;;;;;;;;;;;;;;4979019;28;19910;-21
2023/03/30 14:05:06;;;;;;;;;;;;;;;;;;4996082;28;20001;-21
2023/03/30 14:07:32;;;;;;;;;;;;;;;;;;4996223;28;19910;-21
2023/03/30 14:09:58;;;;;;;;;;;;;;;;;;4996247;28;19910;-25
2023/03/30 14:12:25;;;;;;;;;;;;;;;;;;4995877;28;20201;-22
2023/03/30 14:14:52;;;;;;;;;;;;;;;;;;4995884;28;20001;-23
2023/03/30 14:17:18;;;;;;;;;;;;;;;;;;4996065;28;19913;-22
2023/03/30 14:19:43;;;;;;;;;;;;;;;;;;4978771;28;19932;-21
2023/03/30 14:22:10;;;;;;;;;;;;;;;;;;4995918;28;19910;-21
2023/03/30 14:24:36;;;;;;;;;;;;;;;;;;4996260;28;20230;-22
2023/03/30 14:27:02;;;;;;;;;;;;;;;;;;4978387;28;19918;-24
2023/03/30 14:29:30;;;;;;;;;;;;;;;;;;4978487;28;19910;-23
2023/03/30 14:31:56;;;;;;;;;;;;;;;;;;4995645;28;19909;-22
2023/03/30 14:34:23;;;;;;;;;;;;;;;;;;4995607;28;19910;-24
2023/03/30 14:36:49;;;;;;;;;;;;;;;;;;4995431;28;20309;-22
2023/03/30 14:39:15;;;;;;;;;;;;;;;;;;4978063;28;20156;-22
2023/03/30 14:41:41;;;;;;;;;;;;;;;;;;4995303;28;19913;-23
2023/03/30 14:44:07;;;;;;;;;;;;;;;;;;4995272;28;20403;-21
2023/03/30 14:46:33;;;;;;;;;;;;;;;;;;4995254;28;20245;-22
2023/03/30 14:48:59;;;;;;;;;;;;;;;;;;4978035;28;19992;-23
2023/03/30 14:51:25;;;;;;;;;;;;;;;;;;4995256;28;20405;-23
2023/03/30 14:53:51;;;;;;;;;;;;;;;;;;4995175;28;19913;-23
2023/03/30 14:56:17;;;;;;;;;;;;;;;;;;4995483;28;19917;-21
2023/03/30 14:58:43;;;;;;;;;;;;;;;;;;4995280;28;20313;-22
2023/03/30 15:01:09;;;;;;;;;;;;;;;;;;4994901;28;19910;-21
2023/03/30 15:03:35;;;;;;;;;;;;;;;;;;4994552;28;20004;-23
2023/03/30 15:06:01;;;;;;;;;;;;;;;;;;4995027;28;19910;-23
2023/03/30 15:08:27;;;;;;;;;;;;;;;;;;4994933;28;20008;-23
2023/03/30 15:10:54;;;;;;;;;;;;;;;;;;4995087;28;19972;-19
2023/03/30 15:13:20;;;;;;;;;;;;;;;;;;4976351;28;19909;-22
2023/03/30 15:15:46;;;;;;;;;;;;;;;;;;4993943;28;19910;-23
2023/03/30 15:18:12;;;;;;;;;;;;;;;;;;4993980;28;19921;-22
2023/03/30 15:20:38;;;;;;;;;;;;;;;;;;4993994;28;20252;-22
2023/03/30 15:23:04;;;;;;;;;;;;;;;;;;4994177;28;19918;-22
2023/03/30 15:25:30;;;;;;;;;;;;;;;;;;4993987;28;20348;-22
2023/03/30 15:27:56;;;;;;;;;;;;;;;;;;4994003;28;20005;-23
2023/03/30 15:30:22;;;;;;;;;;;;;;;;;;4976779;28;20011;-22
2023/03/30 15:32:48;;;;;;;;;;;;;;;;;;4976596;28;19921;-22
2023/03/30 15:35:14;;;;;;;;;;;;;;;;;;4977326;28;20269;-23
2023/03/30 15:37:40;;;;;;;;;;;;;;;;;;4977066;28;19925;-22
2023/03/30 15:40:06;;;;;;;;;;;;;;;;;;4994571;28;19918;-22
2023/03/30 15:42:32;;;;;;;;;;;;;;;;;;4977168;28;20026;-23
2023/03/30 15:44:58;;;;;;;;;;;;;;;;;;4994501;28;20248;-24
2023/03/30 15:47:24;;;;;;;;;;;;;;;;;;4994631;28;19968;-23
2023/03/30 15:49:50;;;;;;;;;;;;;;;;;;4994656;28;19917;-21
2023/03/30 15:52:16;;;;;;;;;;;;;;;;;;4994873;28;20004;-21
2023/03/30 15:54:43;;;;;;;;;;;;;;;;;;4994390;28;20485;-22
2023/03/30 15:57:09;;;;;;;;;;;;;;;;;;4994565;28;19921;-22
2023/03/30 15:59:35;;;;;;;;;;;;;;;;;;4977315;28;19914;-23
2023/03/30 16:02:01;;;;;;;;;;;;;;;;;;4994435;28;19910;-23
2023/03/30 16:04:27;;;;;;;;;;;;;;;;;;4994124;28;20253;-22
2023/03/30 16:06:53;;;;;;;;;;;;;;;;;;4994342;28;19910;-21
2023/03/30 16:09:20;;;;;;;;;;;;;;;;;;4994454;28;19971;-21
2023/03/30 16:11:46;;;;;;;;;;;;;;;;;;4994593;28;19995;-22
2023/03/30 16:14:12;;;;;;;;;;;;;;;;;;4994496;28;20276;-23
2023/03/30 16:16:37;;;;;;;;;;;;;;;;;;4994095;28;19963;-22
2023/03/30 16:19:04;;;;;;;;;;;;;;;;;;4994297;28;19909;-24
2023/03/30 16:21:30;;;;;;;;;;;;;;;;;;4994235;28;20360;-22
2023/03/30 16:23:56;;;;;;;;;;;;;;;;;;4976940;28;19968;-21
2023/03/30 16:26:22;;;;;;;;;;;;;;;;;;4996183;28;20274;-24
2023/03/30 16:28:48;;;;;;;;;;;;;;;;;;4997890;28;19910;-23
2023/03/30 16:31:14;;;;;;;;;;;;;;;;;;4997868;28;19910;-22
2023/03/30 16:33:40;;;;;;;;;;;;;;;;;;4997708;28;19910;-27
2023/03/30 16:36:06;;;;;;;;;;;;;;;;;;4997729;28;20357;-21
2023/03/30 16:38:32;;;;;;;;;;;;;;;;;;4997398;28;19918;-24
2023/03/30 16:40:57;;;;;;;;;;;;;;;;;;4997465;28;19909;-22